Time;durP1;ratioP1;P1;durP2;ratioP2;P2;SDS_P1;SDS_P2;PMS_P1;PMS_P2;Temp;Humidity;BMP_temperature;BMP_pressure;BME280_temperature;BME280_humidity;BME280_pressure;Samples;Min_cycle;Max_cycle;Signal;HPM_P1;HPM_P2
2023/10/31 00:01:49;;;;;;;;;;;;;;;;;;5014915;28;19925;-64
2023/10/31 00:04:14;;;;;;;;;;;;;;;;;;5007544;28;20040;-64
2023/10/31 00:06:40;;;;;;;;;;;;;;;;;;5008323;28;19925;-64
2023/10/31 00:09:06;;;;;;;;;;;;;;;;;;5012258;28;20571;-64
2023/10/31 00:11:32;;;;;;;;;;;;;;;;;;5019598;28;19925;-65
2023/10/31 00:13:58;;;;;;;;;;;;;;;;;;5017783;28;19975;-64
2023/10/31 00:16:24;;;;;;;;;;;;;;;;;;5012658;28;19965;-64
2023/10/31 00:18:50;;;;;;;;;;;;;;;;;;5020632;28;19969;-64
2023/10/31 00:21:16;;;;;;;;;;;;;;;;;;5013315;28;20028;-64
2023/10/31 00:23:42;;;;;;;;;;;;;;;;;;5017669;28;20008;-64
2023/10/31 00:26:09;;;;;;;;;;;;;;;;;;5013728;28;19927;-64
2023/10/31 00:28:35;;;;;;;;;;;;;;;;;;5043029;28;20005;-64
2023/10/31 00:31:03;;;;;;;;;;;;;;;;;;5012988;28;20008;-62
2023/10/31 00:33:29;;;;;;;;;;;;;;;;;;5016345;28;20385;-62
2023/10/31 00:35:55;;;;;;;;;;;;;;;;;;5011765;28;19964;-62
2023/10/31 00:38:21;;;;;;;;;;;;;;;;;;5012297;28;19929;-63
2023/10/31 00:40:47;;;;;;;;;;;;;;;;;;5013136;28;19949;-63
2023/10/31 00:43:13;;;;;;;;;;;;;;;;;;5006955;28;19921;-62
2023/10/31 00:45:39;;;;;;;;;;;;;;;;;;5005463;28;20528;-63
2023/10/31 00:48:04;;;;;;;;;;;;;;;;;;5014339;28;19980;-63
2023/10/31 00:50:30;;;;;;;;;;;;;;;;;;5013804;28;19921;-63
2023/10/31 00:52:56;;;;;;;;;;;;;;;;;;5015165;28;19928;-63
2023/10/31 00:55:22;;;;;;;;;;;;;;;;;;5018475;28;19999;-63
2023/10/31 00:57:48;;;;;;;;;;;;;;;;;;5014093;28;20351;-63
2023/10/31 01:00:14;;;;;;;;;;;;;;;;;;5013453;28;20012;-63
2023/10/31 01:02:40;;;;;;;;;;;;;;;;;;5011966;28;19929;-63
2023/10/31 01:05:06;;;;;;;;;;;;;;;;;;5012368;28;19968;-63
2023/10/31 01:07:32;;;;;;;;;;;;;;;;;;5012316;28;19930;-63
2023/10/31 01:09:58;;;;;;;;;;;;;;;;;;5010641;28;19949;-63
2023/10/31 01:12:24;;;;;;;;;;;;;;;;;;5010691;28;20360;-63
2023/10/31 01:14:50;;;;;;;;;;;;;;;;;;5021380;28;19964;-63
2023/10/31 01:17:16;;;;;;;;;;;;;;;;;;5014435;28;19976;-63
2023/10/31 01:19:42;;;;;;;;;;;;;;;;;;5014752;28;19922;-63
2023/10/31 01:22:08;;;;;;;;;;;;;;;;;;5015738;28;19922;-63
2023/10/31 01:24:34;;;;;;;;;;;;;;;;;;5016736;28;20295;-62
2023/10/31 01:27:00;;;;;;;;;;;;;;;;;;5006764;28;19921;-61
2023/10/31 01:29:25;;;;;;;;;;;;;;;;;;5011004;28;19926;-63
2023/10/31 01:31:51;;;;;;;;;;;;;;;;;;5014840;28;19928;-64
2023/10/31 01:34:17;;;;;;;;;;;;;;;;;;5018605;28;19929;-64
2023/10/31 01:36:43;;;;;;;;;;;;;;;;;;5014048;28;19925;-63
2023/10/31 01:39:09;;;;;;;;;;;;;;;;;;5015465;28;19925;-63
2023/10/31 01:41:36;;;;;;;;;;;;;;;;;;5013497;28;19929;-63
2023/10/31 01:44:02;;;;;;;;;;;;;;;;;;5013261;28;20004;-63
2023/10/31 01:46:28;;;;;;;;;;;;;;;;;;5012333;28;20059;-63
2023/10/31 01:48:54;;;;;;;;;;;;;;;;;;5020261;28;20329;-63
2023/10/31 01:51:19;;;;;;;;;;;;;;;;;;5014681;28;19938;-63
2023/10/31 01:53:45;;;;;;;;;;;;;;;;;;5009295;28;20307;-63
2023/10/31 01:56:11;;;;;;;;;;;;;;;;;;5011895;28;19984;-63
2023/10/31 01:58:37;;;;;;;;;;;;;;;;;;5015079;28;19965;-63
2023/10/31 02:01:03;;;;;;;;;;;;;;;;;;5021882;28;19931;-63
2023/10/31 02:03:29;;;;;;;;;;;;;;;;;;5013427;28;19922;-63
2023/10/31 02:05:55;;;;;;;;;;;;;;;;;;5017236;28;20252;-63
2023/10/31 02:08:21;;;;;;;;;;;;;;;;;;5020635;28;19921;-63
2023/10/31 02:10:47;;;;;;;;;;;;;;;;;;5020121;28;19966;-63
2023/10/31 02:13:13;;;;;;;;;;;;;;;;;;5015539;28;19930;-63
2023/10/31 02:15:38;;;;;;;;;;;;;;;;;;5011702;28;19921;-61
2023/10/31 02:18:04;;;;;;;;;;;;;;;;;;5018436;28;19941;-62
2023/10/31 02:20:30;;;;;;;;;;;;;;;;;;5018407;28;19933;-63
2023/10/31 02:22:56;;;;;;;;;;;;;;;;;;5007144;28;19922;-62
2023/10/31 02:25:22;;;;;;;;;;;;;;;;;;5016689;28;19983;-62
2023/10/31 02:27:48;;;;;;;;;;;;;;;;;;5017356;28;19933;-64
2023/10/31 02:30:14;;;;;;;;;;;;;;;;;;5030342;28;19926;-64
2023/10/31 02:32:40;;;;;;;;;;;;;;;;;;5014469;28;19926;-61
2023/10/31 02:35:06;;;;;;;;;;;;;;;;;;5018556;28;19933;-62
2023/10/31 02:37:32;;;;;;;;;;;;;;;;;;5009700;28;19933;-62
2023/10/31 02:39:59;;;;;;;;;;;;;;;;;;5011315;28;20060;-61
2023/10/31 02:42:25;;;;;;;;;;;;;;;;;;5013012;28;20379;-62
2023/10/31 02:44:51;;;;;;;;;;;;;;;;;;5010530;28;20018;-62
2023/10/31 02:47:17;;;;;;;;;;;;;;;;;;5014591;28;19972;-63
2023/10/31 02:49:43;;;;;;;;;;;;;;;;;;5016981;28;19995;-63
2023/10/31 02:52:09;;;;;;;;;;;;;;;;;;5008559;28;20076;-63
2023/10/31 02:54:35;;;;;;;;;;;;;;;;;;5010836;28;19951;-63
2023/10/31 02:57:00;;;;;;;;;;;;;;;;;;5006332;28;19929;-63
2023/10/31 02:59:26;;;;;;;;;;;;;;;;;;5014335;28;20323;-63
2023/10/31 03:01:52;;;;;;;;;;;;;;;;;;5016646;28;19928;-63
2023/10/31 03:04:18;;;;;;;;;;;;;;;;;;5019083;28;19921;-63
2023/10/31 03:06:44;;;;;;;;;;;;;;;;;;5021773;28;19975;-63
2023/10/31 03:09:10;;;;;;;;;;;;;;;;;;5015277;28;19964;-63
2023/10/31 03:11:36;;;;;;;;;;;;;;;;;;5014660;28;19987;-63
2023/10/31 03:14:02;;;;;;;;;;;;;;;;;;5016914;28;19925;-64
2023/10/31 03:16:28;;;;;;;;;;;;;;;;;;5018883;28;19969;-63
2023/10/31 03:18:53;;;;;;;;;;;;;;;;;;5018510;28;19968;-63
2023/10/31 03:21:19;;;;;;;;;;;;;;;;;;5016565;28;19922;-63
2023/10/31 03:23:45;;;;;;;;;;;;;;;;;;4995829;28;19965;-63
2023/10/31 03:26:11;;;;;;;;;;;;;;;;;;5017811;28;20015;-63
2023/10/31 03:28:37;;;;;;;;;;;;;;;;;;5019379;28;20345;-63
2023/10/31 03:31:03;;;;;;;;;;;;;;;;;;5020700;28;19922;-63
2023/10/31 03:33:29;;;;;;;;;;;;;;;;;;5015157;28;19925;-63
2023/10/31 03:35:55;;;;;;;;;;;;;;;;;;5014413;28;19932;-63
2023/10/31 03:38:21;;;;;;;;;;;;;;;;;;5018685;28;19922;-63
2023/10/31 03:40:47;;;;;;;;;;;;;;;;;;5024585;28;19928;-63
2023/10/31 03:43:13;;;;;;;;;;;;;;;;;;5027914;28;19948;-63
2023/10/31 03:45:38;;;;;;;;;;;;;;;;;;5006339;28;19967;-63
2023/10/31 03:48:04;;;;;;;;;;;;;;;;;;5014920;28;19921;-63
2023/10/31 03:50:30;;;;;;;;;;;;;;;;;;5014177;28;19940;-63
2023/10/31 03:52:56;;;;;;;;;;;;;;;;;;5014946;28;19936;-64
2023/10/31 03:55:22;;;;;;;;;;;;;;;;;;5011760;28;20382;-64
2023/10/31 03:57:48;;;;;;;;;;;;;;;;;;5020447;28;19925;-63
2023/10/31 04:00:14;;;;;;;;;;;;;;;;;;5013954;28;19921;-63
2023/10/31 04:02:41;;;;;;;;;;;;;;;;;;5017479;28;19922;-62
2023/10/31 04:05:07;;;;;;;;;;;;;;;;;;5011555;28;19949;-62
2023/10/31 04:07:32;;;;;;;;;;;;;;;;;;5015329;28;20315;-62
2023/10/31 04:09:58;;;;;;;;;;;;;;;;;;5016317;28;19925;-62
2023/10/31 04:12:24;;;;;;;;;;;;;;;;;;5014507;28;19935;-62
2023/10/31 04:14:50;;;;;;;;;;;;;;;;;;5013573;28;19928;-63
2023/10/31 04:17:16;;;;;;;;;;;;;;;;;;5013273;28;19926;-63
2023/10/31 04:19:42;;;;;;;;;;;;;;;;;;5013348;28;19984;-63
2023/10/31 04:22:08;;;;;;;;;;;;;;;;;;5012264;28;19940;-63
2023/10/31 04:24:34;;;;;;;;;;;;;;;;;;5019578;28;19928;-62
2023/10/31 04:27:00;;;;;;;;;;;;;;;;;;5016854;28;19921;-62
2023/10/31 04:29:26;;;;;;;;;;;;;;;;;;5019881;28;19944;-62
2023/10/31 04:31:51;;;;;;;;;;;;;;;;;;5005359;28;19930;-62
2023/10/31 04:34:17;;;;;;;;;;;;;;;;;;5009837;28;19975;-62
2023/10/31 04:36:43;;;;;;;;;;;;;;;;;;5015233;28;19945;-62
2023/10/31 04:39:09;;;;;;;;;;;;;;;;;;5021054;28;19971;-62
2023/10/31 04:41:35;;;;;;;;;;;;;;;;;;5021409;28;20259;-62
2023/10/31 04:44:01;;;;;;;;;;;;;;;;;;5015931;28;19987;-63
2023/10/31 04:46:27;;;;;;;;;;;;;;;;;;5022405;28;20051;-61
2023/10/31 04:48:53;;;;;;;;;;;;;;;;;;5027159;28;19922;-62
2023/10/31 04:51:19;;;;;;;;;;;;;;;;;;5014828;28;19967;-63
2023/10/31 04:53:45;;;;;;;;;;;;;;;;;;5011844;28;20434;-63
2023/10/31 04:56:11;;;;;;;;;;;;;;;;;;5011478;28;19932;-63
2023/10/31 04:58:37;;;;;;;;;;;;;;;;;;5017177;28;19929;-63
2023/10/31 05:01:02;;;;;;;;;;;;;;;;;;5015044;28;20370;-63
2023/10/31 05:03:28;;;;;;;;;;;;;;;;;;5014221;28;19921;-63
2023/10/31 05:05:54;;;;;;;;;;;;;;;;;;5019769;28;20059;-63
2023/10/31 05:08:20;;;;;;;;;;;;;;;;;;5015985;28;19948;-62
2023/10/31 05:10:47;;;;;;;;;;;;;;;;;;5015968;28;19921;-61
2023/10/31 05:13:13;;;;;;;;;;;;;;;;;;5014362;28;19928;-63
2023/10/31 05:15:39;;;;;;;;;;;;;;;;;;5016066;28;19925;-62
2023/10/31 05:18:05;;;;;;;;;;;;;;;;;;5043744;28;20248;-62
2023/10/31 05:20:31;;;;;;;;;;;;;;;;;;5012208;28;19953;-62
2023/10/31 05:22:57;;;;;;;;;;;;;;;;;;5012781;28;19926;-62
2023/10/31 05:25:23;;;;;;;;;;;;;;;;;;5019999;28;19921;-62
2023/10/31 05:27:49;;;;;;;;;;;;;;;;;;5020704;28;19929;-62
2023/10/31 05:30:15;;;;;;;;;;;;;;;;;;5027623;28;20373;-62
2023/10/31 05:32:41;;;;;;;;;;;;;;;;;;5031951;28;19925;-63
2023/10/31 05:35:07;;;;;;;;;;;;;;;;;;5015228;28;19925;-63
2023/10/31 05:37:33;;;;;;;;;;;;;;;;;;5016688;28;19922;-62
2023/10/31 05:40:00;;;;;;;;;;;;;;;;;;5018840;28;19926;-62
2023/10/31 05:42:27;;;;;;;;;;;;;;;;;;5035654;28;19929;-62
2023/10/31 05:44:53;;;;;;;;;;;;;;;;;;5016511;28;19921;-62
2023/10/31 05:47:19;;;;;;;;;;;;;;;;;;5026344;28;20377;-62
2023/10/31 05:49:45;;;;;;;;;;;;;;;;;;5025157;28;20386;-62
2023/10/31 05:52:11;;;;;;;;;;;;;;;;;;5022688;28;19960;-62
2023/10/31 05:54:37;;;;;;;;;;;;;;;;;;5015636;28;19922;-62
2023/10/31 05:57:02;;;;;;;;;;;;;;;;;;5003677;28;20291;-62
2023/10/31 05:59:28;;;;;;;;;;;;;;;;;;5013988;28;19928;-62
2023/10/31 06:01:54;;;;;;;;;;;;;;;;;;5013641;28;19961;-62
2023/10/31 06:04:20;;;;;;;;;;;;;;;;;;5026397;28;19925;-62
2023/10/31 06:06:46;;;;;;;;;;;;;;;;;;5019601;28;19925;-62
2023/10/31 06:09:14;;;;;;;;;;;;;;;;;;5020091;28;19928;-62
2023/10/31 06:11:39;;;;;;;;;;;;;;;;;;5020065;28;19922;-62
2023/10/31 06:14:05;;;;;;;;;;;;;;;;;;5016350;28;19944;-62
2023/10/31 06:16:31;;;;;;;;;;;;;;;;;;5016853;28;19930;-62
2023/10/31 06:18:57;;;;;;;;;;;;;;;;;;5019933;28;19976;-62
2023/10/31 06:21:24;;;;;;;;;;;;;;;;;;5013446;28;19922;-62
2023/10/31 06:23:50;;;;;;;;;;;;;;;;;;5005293;28;20351;-64
2023/10/31 06:26:16;;;;;;;;;;;;;;;;;;5018940;28;20288;-62
2023/10/31 06:28:42;;;;;;;;;;;;;;;;;;5014402;28;19928;-63
2023/10/31 06:31:08;;;;;;;;;;;;;;;;;;5021114;28;20571;-63
2023/10/31 06:33:34;;;;;;;;;;;;;;;;;;5021506;28;19921;-63
2023/10/31 06:36:00;;;;;;;;;;;;;;;;;;5017832;28;19980;-63
2023/10/31 06:38:25;;;;;;;;;;;;;;;;;;5013226;28;19925;-63
2023/10/31 06:40:52;;;;;;;;;;;;;;;;;;5025340;28;19921;-63
2023/10/31 06:43:18;;;;;;;;;;;;;;;;;;5020716;28;19925;-63
2023/10/31 06:45:44;;;;;;;;;;;;;;;;;;5020390;28;19968;-63
2023/10/31 06:48:10;;;;;;;;;;;;;;;;;;5027915;28;20343;-63
2023/10/31 06:50:36;;;;;;;;;;;;;;;;;;5014702;28;19921;-62
2023/10/31 06:53:02;;;;;;;;;;;;;;;;;;5015436;28;19964;-63
2023/10/31 06:55:28;;;;;;;;;;;;;;;;;;5018864;28;19983;-62
2023/10/31 06:57:54;;;;;;;;;;;;;;;;;;5041853;28;19972;-63
2023/10/31 07:00:20;;;;;;;;;;;;;;;;;;5015235;28;20007;-63
2023/10/31 07:02:47;;;;;;;;;;;;;;;;;;5013019;28;20307;-63
2023/10/31 07:05:13;;;;;;;;;;;;;;;;;;5015442;28;20017;-63
2023/10/31 07:07:39;;;;;;;;;;;;;;;;;;5010960;28;19928;-63
2023/10/31 07:10:05;;;;;;;;;;;;;;;;;;5017545;28;19921;-63
2023/10/31 07:12:31;;;;;;;;;;;;;;;;;;5015705;28;20271;-62
2023/10/31 07:15:00;;;;;;;;;;;;;;;;;;5048256;28;19933;-62
2023/10/31 07:17:26;;;;;;;;;;;;;;;;;;5023914;28;19952;-62
2023/10/31 07:19:52;;;;;;;;;;;;;;;;;;5010771;28;20391;-62
2023/10/31 07:22:18;;;;;;;;;;;;;;;;;;5015577;28;20431;-62
2023/10/31 07:24:44;;;;;;;;;;;;;;;;;;5015077;28;19984;-62
2023/10/31 07:27:10;;;;;;;;;;;;;;;;;;5014094;28;19948;-62
2023/10/31 07:29:36;;;;;;;;;;;;;;;;;;5018363;28;19976;-63
2023/10/31 07:32:02;;;;;;;;;;;;;;;;;;5010509;28;19961;-63
2023/10/31 07:34:28;;;;;;;;;;;;;;;;;;5013374;28;20014;-63
2023/10/31 07:36:54;;;;;;;;;;;;;;;;;;5017955;28;20017;-62
2023/10/31 07:39:20;;;;;;;;;;;;;;;;;;5019427;28;19921;-63
2023/10/31 07:41:45;;;;;;;;;;;;;;;;;;5019218;28;20295;-62
2023/10/31 07:44:12;;;;;;;;;;;;;;;;;;5015013;28;19928;-62
2023/10/31 07:46:37;;;;;;;;;;;;;;;;;;5011487;28;19980;-62
2023/10/31 07:49:03;;;;;;;;;;;;;;;;;;5014362;28;19952;-63
2023/10/31 07:51:29;;;;;;;;;;;;;;;;;;5014362;28;19926;-63
2023/10/31 07:53:57;;;;;;;;;;;;;;;;;;5013294;28;20059;-64
2023/10/31 07:56:25;;;;;;;;;;;;;;;;;;5012975;28;20213;-62
2023/10/31 07:58:51;;;;;;;;;;;;;;;;;;5010739;28;19972;-62
2023/10/31 08:01:17;;;;;;;;;;;;;;;;;;5014581;28;20248;-62
2023/10/31 08:03:43;;;;;;;;;;;;;;;;;;5012900;28;19925;-62
2023/10/31 08:06:08;;;;;;;;;;;;;;;;;;5013250;28;19921;-62
2023/10/31 08:08:34;;;;;;;;;;;;;;;;;;5045174;28;19975;-61
2023/10/31 08:11:00;;;;;;;;;;;;;;;;;;5052988;23;19986;-59
2023/10/31 08:13:26;;;;;;;;;;;;;;;;;;5039492;28;20256;-59
2023/10/31 08:15:52;;;;;;;;;;;;;;;;;;5037176;28;19983;-59
2023/10/31 08:18:18;;;;;;;;;;;;;;;;;;5034499;28;19937;-59
2023/10/31 08:20:46;;;;;;;;;;;;;;;;;;5029953;28;19979;-58
2023/10/31 08:23:12;;;;;;;;;;;;;;;;;;5019402;28;19925;-59
2023/10/31 08:25:37;;;;;;;;;;;;;;;;;;5035995;28;19971;-59
2023/10/31 08:28:03;;;;;;;;;;;;;;;;;;5022632;28;19921;-59
2023/10/31 08:30:30;;;;;;;;;;;;;;;;;;5035128;28;19928;-58
2023/10/31 08:32:56;;;;;;;;;;;;;;;;;;5048855;28;19921;-58
2023/10/31 08:35:22;;;;;;;;;;;;;;;;;;5043347;28;19921;-59
2023/10/31 08:37:48;;;;;;;;;;;;;;;;;;5030919;28;19924;-59
2023/10/31 08:40:13;;;;;;;;;;;;;;;;;;5037927;28;19929;-59
2023/10/31 08:42:39;;;;;;;;;;;;;;;;;;5036059;28;20065;-59
2023/10/31 08:45:05;;;;;;;;;;;;;;;;;;5045918;28;19951;-59
2023/10/31 08:47:31;;;;;;;;;;;;;;;;;;5046437;28;19928;-59
2023/10/31 08:49:57;;;;;;;;;;;;;;;;;;5042523;28;19948;-59
2023/10/31 08:52:23;;;;;;;;;;;;;;;;;;5026103;28;20008;-59
2023/10/31 08:54:49;;;;;;;;;;;;;;;;;;5041679;28;20011;-60
2023/10/31 08:57:15;;;;;;;;;;;;;;;;;;5024604;28;19928;-59
2023/10/31 08:59:41;;;;;;;;;;;;;;;;;;5036905;28;20638;-59
2023/10/31 09:02:07;;;;;;;;;;;;;;;;;;5052663;28;19936;-60
2023/10/31 09:04:33;;;;;;;;;;;;;;;;;;5049087;28;20329;-59
2023/10/31 09:06:58;;;;;;;;;;;;;;;;;;5016111;28;19951;-59
2023/10/31 09:09:24;;;;;;;;;;;;;;;;;;5021219;28;19932;-60
2023/10/31 09:11:50;;;;;;;;;;;;;;;;;;5028398;28;20718;-60
2023/10/31 09:14:16;;;;;;;;;;;;;;;;;;5004572;28;20271;-60
2023/10/31 09:16:42;;;;;;;;;;;;;;;;;;5028591;28;19929;-60
2023/10/31 09:19:08;;;;;;;;;;;;;;;;;;5039490;28;19932;-59
2023/10/31 09:21:34;;;;;;;;;;;;;;;;;;5031753;28;19948;-59
2023/10/31 09:24:00;;;;;;;;;;;;;;;;;;5027632;28;19925;-59
2023/10/31 09:26:26;;;;;;;;;;;;;;;;;;5039200;28;19921;-59
2023/10/31 09:28:52;;;;;;;;;;;;;;;;;;5020238;28;19925;-59
2023/10/31 09:31:18;;;;;;;;;;;;;;;;;;5042486;28;20281;-59
2023/10/31 09:33:44;;;;;;;;;;;;;;;;;;5021878;28;19922;-59
2023/10/31 09:36:10;;;;;;;;;;;;;;;;;;5030426;28;19921;-59
2023/10/31 09:38:36;;;;;;;;;;;;;;;;;;5021433;28;20020;-59
2023/10/31 09:41:01;;;;;;;;;;;;;;;;;;5026075;28;20019;-59
2023/10/31 09:43:27;;;;;;;;;;;;;;;;;;5028437;28;19931;-59
2023/10/31 09:45:53;;;;;;;;;;;;;;;;;;5030409;28;20358;-59
2023/10/31 09:48:19;;;;;;;;;;;;;;;;;;5029841;28;19932;-59
2023/10/31 09:50:45;;;;;;;;;;;;;;;;;;5035865;28;19921;-59
2023/10/31 09:53:11;;;;;;;;;;;;;;;;;;5031196;28;19929;-59
2023/10/31 09:55:37;;;;;;;;;;;;;;;;;;5030348;28;19928;-59
2023/10/31 09:58:03;;;;;;;;;;;;;;;;;;5036435;28;19924;-59
2023/10/31 10:00:28;;;;;;;;;;;;;;;;;;5024250;28;20393;-59
2023/10/31 10:02:54;;;;;;;;;;;;;;;;;;5034664;28;19935;-59
2023/10/31 10:05:20;;;;;;;;;;;;;;;;;;5030396;28;19927;-59
2023/10/31 10:07:46;;;;;;;;;;;;;;;;;;5046962;28;20392;-59
2023/10/31 10:10:12;;;;;;;;;;;;;;;;;;5015062;28;19925;-59
2023/10/31 10:12:38;;;;;;;;;;;;;;;;;;5019018;28;19943;-59
2023/10/31 10:15:04;;;;;;;;;;;;;;;;;;5033197;28;19964;-59
2023/10/31 10:17:30;;;;;;;;;;;;;;;;;;5030562;28;19960;-59
2023/10/31 10:19:56;;;;;;;;;;;;;;;;;;5045539;28;19948;-59
2023/10/31 10:22:22;;;;;;;;;;;;;;;;;;5027848;28;19928;-59
2023/10/31 10:24:48;;;;;;;;;;;;;;;;;;5013279;28;20008;-59
2023/10/31 10:27:14;;;;;;;;;;;;;;;;;;5034152;28;20604;-59
2023/10/31 10:29:41;;;;;;;;;;;;;;;;;;5009558;28;19925;-60
2023/10/31 10:32:08;;;;;;;;;;;;;;;;;;5032387;28;19929;-59
2023/10/31 10:34:35;;;;;;;;;;;;;;;;;;5029089;28;19929;-59
2023/10/31 10:37:01;;;;;;;;;;;;;;;;;;5026181;28;20004;-59
2023/10/31 10:39:27;;;;;;;;;;;;;;;;;;5027058;28;20008;-59
2023/10/31 10:41:55;;;;;;;;;;;;;;;;;;5024805;28;20398;-59
2023/10/31 10:44:21;;;;;;;;;;;;;;;;;;5014650;28;19929;-59
2023/10/31 10:46:47;;;;;;;;;;;;;;;;;;5038257;28;20396;-59
2023/10/31 10:49:13;;;;;;;;;;;;;;;;;;5048781;28;19921;-59
2023/10/31 10:51:38;;;;;;;;;;;;;;;;;;5038108;28;20314;-59
2023/10/31 10:54:04;;;;;;;;;;;;;;;;;;5034275;28;20359;-59
2023/10/31 10:56:30;;;;;;;;;;;;;;;;;;5047420;28;19925;-58
2023/10/31 10:58:57;;;;;;;;;;;;;;;;;;5040408;28;19929;-58
2023/10/31 11:01:22;;;;;;;;;;;;;;;;;;5026415;28;19939;-59
2023/10/31 11:03:48;;;;;;;;;;;;;;;;;;5039518;28;19921;-58
2023/10/31 11:06:14;;;;;;;;;;;;;;;;;;5041449;28;19925;-58
2023/10/31 11:08:40;;;;;;;;;;;;;;;;;;5026653;28;19921;-59
2023/10/31 11:11:06;;;;;;;;;;;;;;;;;;5028673;28;20275;-59
2023/10/31 11:13:32;;;;;;;;;;;;;;;;;;5006670;28;19929;-59
2023/10/31 11:15:58;;;;;;;;;;;;;;;;;;5018776;28;19929;-58
2023/10/31 11:18:24;;;;;;;;;;;;;;;;;;5021585;28;19929;-60
2023/10/31 11:20:50;;;;;;;;;;;;;;;;;;5012527;28;19932;-59
2023/10/31 11:23:16;;;;;;;;;;;;;;;;;;5042366;28;19921;-59
2023/10/31 11:25:43;;;;;;;;;;;;;;;;;;5034857;28;20011;-59
2023/10/31 11:28:09;;;;;;;;;;;;;;;;;;5027610;28;20016;-59
2023/10/31 11:30:35;;;;;;;;;;;;;;;;;;5033129;28;19925;-59
2023/10/31 11:33:01;;;;;;;;;;;;;;;;;;5013490;28;20483;-59
2023/10/31 11:35:27;;;;;;;;;;;;;;;;;;5027656;28;19925;-59
2023/10/31 11:37:53;;;;;;;;;;;;;;;;;;5021883;28;19921;-59
2023/10/31 11:40:18;;;;;;;;;;;;;;;;;;5008919;28;20274;-59
2023/10/31 11:42:44;;;;;;;;;;;;;;;;;;5030960;28;19928;-59
2023/10/31 11:45:10;;;;;;;;;;;;;;;;;;5018843;28;19927;-59
2023/10/31 11:47:36;;;;;;;;;;;;;;;;;;5027533;28;19921;-59
2023/10/31 11:50:02;;;;;;;;;;;;;;;;;;5026886;28;19925;-59
2023/10/31 11:52:28;;;;;;;;;;;;;;;;;;5040216;28;19925;-59
2023/10/31 11:54:54;;;;;;;;;;;;;;;;;;5032840;28;19925;-61
2023/10/31 11:57:20;;;;;;;;;;;;;;;;;;5034519;28;20020;-62
2023/10/31 11:59:46;;;;;;;;;;;;;;;;;;5033184;28;19940;-59
2023/10/31 12:02:11;;;;;;;;;;;;;;;;;;5003299;28;20486;-59
2023/10/31 12:04:37;;;;;;;;;;;;;;;;;;5030298;28;19925;-59
2023/10/31 12:07:03;;;;;;;;;;;;;;;;;;5031851;28;19949;-59
2023/10/31 12:09:29;;;;;;;;;;;;;;;;;;5032276;28;19925;-59
2023/10/31 12:11:55;;;;;;;;;;;;;;;;;;5034299;28;19925;-59
2023/10/31 12:14:21;;;;;;;;;;;;;;;;;;5049037;28;19949;-59
2023/10/31 12:16:49;;;;;;;;;;;;;;;;;;5028026;28;20491;-59
2023/10/31 12:19:15;;;;;;;;;;;;;;;;;;5026605;28;19935;-59
2023/10/31 12:21:41;;;;;;;;;;;;;;;;;;5025986;28;19928;-59
2023/10/31 12:24:07;;;;;;;;;;;;;;;;;;5041853;28;19975;-59
2023/10/31 12:26:34;;;;;;;;;;;;;;;;;;4999406;28;19921;-59
2023/10/31 12:29:00;;;;;;;;;;;;;;;;;;5034570;28;19925;-59
2023/10/31 12:31:26;;;;;;;;;;;;;;;;;;5031388;28;19921;-59
2023/10/31 12:33:52;;;;;;;;;;;;;;;;;;5038239;28;19921;-59
2023/10/31 12:36:18;;;;;;;;;;;;;;;;;;5033190;28;19929;-59
2023/10/31 12:38:44;;;;;;;;;;;;;;;;;;5026155;28;19952;-59
2023/10/31 12:41:10;;;;;;;;;;;;;;;;;;5024622;28;19929;-59
2023/10/31 12:43:37;;;;;;;;;;;;;;;;;;5030124;28;19959;-59
2023/10/31 12:46:02;;;;;;;;;;;;;;;;;;5035785;28;19921;-60
2023/10/31 12:48:28;;;;;;;;;;;;;;;;;;5032695;28;19925;-60
2023/10/31 12:50:54;;;;;;;;;;;;;;;;;;5028770;28;19929;-60
2023/10/31 12:53:20;;;;;;;;;;;;;;;;;;5052886;28;19925;-59
2023/10/31 12:55:46;;;;;;;;;;;;;;;;;;5027894;28;20372;-59
2023/10/31 12:58:14;;;;;;;;;;;;;;;;;;5042664;28;19931;-59
2023/10/31 13:00:42;;;;;;;;;;;;;;;;;;5043881;28;20039;-59
2023/10/31 13:03:11;;;;;;;;;;;;;;;;;;5031562;28;19921;-59
2023/10/31 13:05:40;;;;;;;;;;;;;;;;;;5050776;28;19967;-59
2023/10/31 13:08:06;;;;;;;;;;;;;;;;;;5008727;28;19932;-59
2023/10/31 13:10:32;;;;;;;;;;;;;;;;;;5021554;28;19971;-60
2023/10/31 13:12:58;;;;;;;;;;;;;;;;;;5029260;28;20493;-60
2023/10/31 13:15:24;;;;;;;;;;;;;;;;;;5014979;28;19927;-60
2023/10/31 13:17:50;;;;;;;;;;;;;;;;;;5024496;28;19929;-59
2023/10/31 13:20:16;;;;;;;;;;;;;;;;;;5043934;28;20007;-59
2023/10/31 13:22:42;;;;;;;;;;;;;;;;;;5016660;28;19944;-59
2023/10/31 13:25:09;;;;;;;;;;;;;;;;;;5034244;28;20480;-60
2023/10/31 13:27:35;;;;;;;;;;;;;;;;;;5036836;28;20244;-59
2023/10/31 13:30:01;;;;;;;;;;;;;;;;;;5041675;28;19932;-60
2023/10/31 13:32:27;;;;;;;;;;;;;;;;;;5036046;28;19928;-58
2023/10/31 13:34:53;;;;;;;;;;;;;;;;;;5034356;28;19948;-59
2023/10/31 13:37:19;;;;;;;;;;;;;;;;;;5052099;28;19932;-59
2023/10/31 13:39:45;;;;;;;;;;;;;;;;;;5044536;28;19921;-59
2023/10/31 13:42:11;;;;;;;;;;;;;;;;;;5034561;28;20007;-59
2023/10/31 13:44:37;;;;;;;;;;;;;;;;;;5012012;28;20008;-59
2023/10/31 13:47:03;;;;;;;;;;;;;;;;;;5020886;28;19921;-59
2023/10/31 13:49:29;;;;;;;;;;;;;;;;;;5032918;28;19925;-59
2023/10/31 13:51:55;;;;;;;;;;;;;;;;;;5048288;28;20393;-59
2023/10/31 13:54:21;;;;;;;;;;;;;;;;;;5035043;28;19925;-59
2023/10/31 13:56:47;;;;;;;;;;;;;;;;;;5017531;28;19925;-59
2023/10/31 13:59:13;;;;;;;;;;;;;;;;;;5017809;28;19932;-59
2023/10/31 14:01:39;;;;;;;;;;;;;;;;;;5027371;28;20324;-59
2023/10/31 14:04:05;;;;;;;;;;;;;;;;;;5026349;28;19925;-59
2023/10/31 14:06:32;;;;;;;;;;;;;;;;;;5008924;28;19932;-60
2023/10/31 14:08:58;;;;;;;;;;;;;;;;;;5031979;28;19925;-59
2023/10/31 14:11:23;;;;;;;;;;;;;;;;;;5012324;28;19921;-59
2023/10/31 14:13:50;;;;;;;;;;;;;;;;;;5031519;28;19931;-60
2023/10/31 14:16:16;;;;;;;;;;;;;;;;;;5027409;28;20248;-60
2023/10/31 14:18:42;;;;;;;;;;;;;;;;;;5029417;28;19925;-60
2023/10/31 14:21:08;;;;;;;;;;;;;;;;;;5034268;28;19935;-60
2023/10/31 14:23:34;;;;;;;;;;;;;;;;;;5046180;28;19920;-60
2023/10/31 14:26:00;;;;;;;;;;;;;;;;;;5040862;28;19947;-60
2023/10/31 14:28:26;;;;;;;;;;;;;;;;;;5044850;28;19975;-60
2023/10/31 14:30:52;;;;;;;;;;;;;;;;;;5038105;28;19932;-60
2023/10/31 14:33:18;;;;;;;;;;;;;;;;;;5034360;28;19990;-60
2023/10/31 14:35:44;;;;;;;;;;;;;;;;;;5029639;28;19921;-60
2023/10/31 14:38:09;;;;;;;;;;;;;;;;;;5039556;28;20362;-60
2023/10/31 14:40:35;;;;;;;;;;;;;;;;;;5033692;28;19972;-60
2023/10/31 14:43:01;;;;;;;;;;;;;;;;;;5013439;28;20059;-60
2023/10/31 14:45:27;;;;;;;;;;;;;;;;;;5044194;28;19922;-60
2023/10/31 14:47:53;;;;;;;;;;;;;;;;;;5041294;28;19932;-60
2023/10/31 14:50:22;;;;;;;;;;;;;;;;;;5029354;28;19925;-60
2023/10/31 14:52:48;;;;;;;;;;;;;;;;;;5039689;28;19929;-60
2023/10/31 14:55:14;;;;;;;;;;;;;;;;;;5016527;28;19927;-60
2023/10/31 14:57:40;;;;;;;;;;;;;;;;;;5045841;28;20585;-60
2023/10/31 15:00:07;;;;;;;;;;;;;;;;;;5027591;28;19925;-60
2023/10/31 15:02:34;;;;;;;;;;;;;;;;;;5030111;28;19975;-60
2023/10/31 15:05:00;;;;;;;;;;;;;;;;;;5025874;28;19971;-60
2023/10/31 15:07:26;;;;;;;;;;;;;;;;;;5045762;28;19960;-60
2023/10/31 15:09:52;;;;;;;;;;;;;;;;;;5036632;28;19932;-60
2023/10/31 15:12:18;;;;;;;;;;;;;;;;;;5035689;28;19936;-60
2023/10/31 15:14:43;;;;;;;;;;;;;;;;;;5028087;28;19925;-60
2023/10/31 15:17:09;;;;;;;;;;;;;;;;;;5031355;28;19968;-60
2023/10/31 15:19:35;;;;;;;;;;;;;;;;;;5032482;28;19963;-60
2023/10/31 15:22:01;;;;;;;;;;;;;;;;;;5035969;28;20406;-60
2023/10/31 15:24:30;;;;;;;;;;;;;;;;;;5031925;28;19940;-60
2023/10/31 15:26:56;;;;;;;;;;;;;;;;;;5028835;28;19975;-60
2023/10/31 15:29:21;;;;;;;;;;;;;;;;;;5035845;28;19921;-60
2023/10/31 15:31:53;;;;;;;;;;;;;;;;;;5030122;28;20508;-60
2023/10/31 15:34:19;;;;;;;;;;;;;;;;;;5029541;28;19929;-60
2023/10/31 15:36:45;;;;;;;;;;;;;;;;;;5039657;28;19925;-60
2023/10/31 15:39:11;;;;;;;;;;;;;;;;;;5038240;28;19925;-61
2023/10/31 15:41:37;;;;;;;;;;;;;;;;;;5031714;28;20468;-60
2023/10/31 15:44:04;;;;;;;;;;;;;;;;;;5042405;28;19925;-61
2023/10/31 15:46:30;;;;;;;;;;;;;;;;;;5030856;28;19990;-60
2023/10/31 15:48:56;;;;;;;;;;;;;;;;;;5027149;28;20462;-60
2023/10/31 15:51:22;;;;;;;;;;;;;;;;;;5035513;28;19932;-60
2023/10/31 15:53:48;;;;;;;;;;;;;;;;;;5035124;28;19921;-60
2023/10/31 15:56:13;;;;;;;;;;;;;;;;;;5031813;28;20363;-60
2023/10/31 15:58:39;;;;;;;;;;;;;;;;;;5033065;28;19929;-60
2023/10/31 16:01:05;;;;;;;;;;;;;;;;;;5027390;28;20259;-60
2023/10/31 16:03:31;;;;;;;;;;;;;;;;;;5031467;28;19968;-60
2023/10/31 16:05:57;;;;;;;;;;;;;;;;;;5030675;28;19943;-60
2023/10/31 16:08:23;;;;;;;;;;;;;;;;;;5035536;28;19925;-60
2023/10/31 16:10:49;;;;;;;;;;;;;;;;;;5030997;28;19932;-64
2023/10/31 16:13:15;;;;;;;;;;;;;;;;;;5023304;28;19961;-64
2023/10/31 16:15:41;;;;;;;;;;;;;;;;;;5034829;28;20261;-64
2023/10/31 16:18:07;;;;;;;;;;;;;;;;;;5039546;28;19929;-64
2023/10/31 16:20:34;;;;;;;;;;;;;;;;;;5030581;28;19928;-64
2023/10/31 16:23:00;;;;;;;;;;;;;;;;;;5034914;28;20078;-64
2023/10/31 16:25:26;;;;;;;;;;;;;;;;;;5033748;28;20067;-64
2023/10/31 16:27:52;;;;;;;;;;;;;;;;;;5030308;28;20267;-64
2023/10/31 16:30:18;;;;;;;;;;;;;;;;;;5034771;28;19925;-63
2023/10/31 16:32:44;;;;;;;;;;;;;;;;;;5011596;28;19972;-63
2023/10/31 16:35:10;;;;;;;;;;;;;;;;;;5032978;28;19935;-63
2023/10/31 16:37:37;;;;;;;;;;;;;;;;;;5049844;28;20269;-63